createdAt,value
2018-09-17T00:01:22.443Z,74.60
2018-09-17T00:03:51.255Z,74.94
2018-09-17T00:06:20.096Z,74.61
2018-09-17T00:08:49.048Z,73.58
2018-09-17T00:11:17.884Z,74.74
2018-09-17T00:13:46.690Z,74.62
2018-09-17T00:16:15.588Z,74.91
2018-09-17T00:18:44.410Z,74.29
2018-09-17T00:21:13.227Z,75.16
2018-09-17T00:23:42.087Z,75.20
2018-09-17T00:26:11.025Z,74.44
2018-09-17T00:28:39.865Z,74.33
2018-09-17T00:31:08.761Z,74.00
2018-09-17T00:33:37.590Z,74.37
2018-09-17T00:36:06.446Z,74.25
2018-09-17T00:38:35.318Z,73.88
2018-09-17T00:41:04.142Z,73.57
2018-09-17T00:43:32.964Z,73.79
2018-09-17T00:46:01.860Z,74.01
2018-09-17T00:48:30.718Z,73.51
2018-09-17T00:50:59.606Z,73.98
2018-09-17T00:53:28.526Z,74.40
2018-09-17T00:55:57.411Z,74.16
2018-09-17T00:58:26.238Z,74.10
2018-09-17T01:00:55.158Z,74.41
2018-09-17T01:03:24.047Z,74.59
2018-09-17T01:05:52.877Z,73.99
2018-09-17T01:08:21.726Z,75.34
2018-09-17T01:10:50.615Z,75.86
2018-09-17T01:13:19.474Z,76.06
2018-09-17T01:15:48.687Z,76.17
2018-09-17T01:18:17.537Z,76.04
2018-09-17T01:20:46.361Z,75.62
2018-09-17T01:23:15.174Z,75.86
2018-09-17T01:25:44.046Z,75.39
2018-09-17T01:28:12.871Z,75.02
2018-09-17T01:30:41.678Z,75.13
2018-09-17T01:33:10.533Z,75.34
2018-09-17T01:35:39.354Z,74.75
2018-09-17T01:38:08.170Z,74.80
2018-09-17T01:40:37.019Z,74.90
2018-09-17T01:43:06.146Z,74.89
2018-09-17T01:45:34.982Z,75.44
2018-09-17T01:48:03.867Z,75.49
2018-09-17T01:50:32.719Z,75.59
2018-09-17T01:53:01.550Z,75.59
2018-09-17T01:55:30.435Z,76.06
2018-09-17T01:58:00.547Z,75.79
2018-09-17T02:00:29.523Z,75.00
2018-09-17T02:02:58.403Z,75.06
2018-09-17T02:05:27.215Z,74.27
2018-09-17T02:07:56.100Z,74.00
2018-09-17T02:10:24.952Z,73.02
2018-09-17T02:12:53.782Z,73.29
2018-09-17T02:15:22.651Z,73.08
2018-09-17T02:17:51.450Z,72.91
2018-09-17T02:20:20.262Z,73.14
2018-09-17T02:22:49.110Z,71.92
2018-09-17T02:25:17.966Z,72.07
2018-09-17T02:27:46.873Z,71.48
2018-09-17T02:30:15.787Z,71.62
2018-09-17T02:32:44.610Z,71.20
2018-09-17T02:35:13.429Z,70.75
2018-09-17T02:37:42.299Z,70.55
2018-09-17T02:40:16.582Z,70.02
2018-09-17T02:42:48.194Z,69.30
2018-09-17T02:45:17.351Z,69.17
2018-09-17T02:47:46.460Z,68.48
2018-09-17T02:50:15.308Z,68.22
2018-09-17T02:52:44.141Z,68.38
2018-09-17T02:55:13.068Z,67.70
2018-09-17T02:57:41.877Z,68.00
2018-09-17T03:00:11.201Z,67.15
2018-09-17T03:02:40.195Z,67.05
2018-09-17T03:05:09.454Z,66.90
2018-09-17T03:07:38.253Z,66.58
2018-09-17T03:10:07.151Z,66.32
2018-09-17T03:12:35.942Z,66.16
2018-09-17T03:15:15.823Z,66.18
2018-09-17T03:17:44.630Z,65.05
2018-09-17T03:20:15.933Z,65.27
2018-09-17T03:22:44.721Z,65.31
2018-09-17T03:25:13.513Z,64.65
2018-09-17T03:27:42.382Z,65.01
2018-09-17T03:30:11.261Z,64.18
2018-09-17T03:32:40.078Z,64.91
2018-09-17T03:35:08.921Z,64.70
2018-09-17T03:37:37.750Z,64.48
2018-09-17T03:40:06.630Z,64.57
2018-09-17T03:42:36.782Z,63.83
2018-09-17T03:45:05.832Z,63.87
2018-09-17T03:47:34.659Z,63.79
2018-09-17T03:50:06.332Z,63.70
2018-09-17T03:52:35.163Z,62.75
2018-09-17T03:55:04.089Z,63.18
2018-09-17T03:57:32.948Z,63.82
2018-09-17T04:00:01.761Z,63.61
2018-09-17T04:02:30.553Z,64.34
2018-09-17T04:05:01.121Z,64.52
2018-09-17T04:07:29.926Z,63.75
2018-09-17T04:09:58.746Z,63.21
2018-09-17T04:12:27.620Z,63.19
2018-09-17T04:14:56.427Z,62.78
2018-09-17T04:17:25.217Z,62.93
2018-09-17T04:19:54.075Z,63.32
2018-09-17T04:22:22.880Z,63.27
2018-09-17T04:24:51.719Z,64.07
2018-09-17T04:27:20.534Z,63.83
2018-09-17T04:29:50.617Z,63.75
2018-09-17T04:32:19.422Z,63.67
2018-09-17T04:34:48.224Z,62.77
2018-09-17T04:37:18.402Z,62.80
2018-09-17T04:39:47.385Z,61.32
2018-09-17T04:42:16.146Z,61.49
2018-09-17T04:44:45.083Z,61.29
2018-09-17T04:47:13.902Z,61.46
2018-09-17T04:49:42.708Z,62.20
2018-09-17T04:52:11.558Z,61.63
2018-09-17T04:54:40.382Z,61.69
2018-09-17T04:57:09.404Z,62.34
2018-09-17T04:59:38.483Z,60.97
2018-09-17T05:02:07.364Z,61.12
2018-09-17T05:04:36.440Z,61.12
2018-09-17T05:07:05.348Z,60.36
2018-09-17T05:09:34.411Z,60.23
2018-09-17T05:12:03.301Z,60.66
2018-09-17T05:14:32.085Z,61.08
2018-09-17T05:17:01.636Z,61.28
2018-09-17T05:19:30.432Z,60.76
2018-09-17T05:21:59.478Z,60.60
2018-09-17T05:24:28.478Z,60.21
2018-09-17T05:26:57.433Z,60.59
2018-09-17T05:29:27.179Z,60.58
2018-09-17T05:31:56.406Z,59.59
2018-09-17T05:34:25.247Z,59.82
2018-09-17T05:36:54.117Z,59.90
2018-09-17T05:39:22.915Z,59.47
2018-09-17T05:41:51.743Z,59.06
2018-09-17T05:44:20.666Z,59.27
2018-09-17T05:46:49.571Z,58.77
2018-09-17T05:49:18.376Z,58.48
2018-09-17T05:51:47.198Z,58.50
2018-09-17T05:54:16.055Z,58.44
2018-09-17T05:56:44.850Z,58.07
2018-09-17T05:59:13.665Z,57.63
2018-09-17T06:01:42.496Z,57.45
2018-09-17T06:04:11.315Z,57.30
2018-09-17T06:06:41.594Z,57.47
2018-09-17T06:09:12.211Z,56.20
2018-09-17T06:11:41.099Z,56.96
2018-09-17T06:14:10.233Z,56.34
2018-09-17T06:16:39.039Z,56.90
2018-09-17T06:19:07.859Z,56.13
2018-09-17T06:21:36.898Z,55.93
2018-09-17T06:24:05.776Z,55.82
2018-09-17T06:26:34.601Z,56.07
2018-09-17T06:29:04.808Z,55.79
2018-09-17T06:31:33.611Z,55.58
2018-09-17T06:34:02.474Z,55.59
2018-09-17T06:36:32.620Z,55.79
2018-09-17T06:39:01.463Z,55.70
2018-09-17T06:41:30.572Z,56.49
2018-09-17T06:43:59.394Z,55.95
2018-09-17T06:46:28.215Z,56.36
2018-09-17T06:48:57.034Z,55.74
2018-09-17T06:51:26.163Z,55.32
2018-09-17T06:53:55.132Z,54.63
2018-09-17T06:56:23.914Z,54.90
2018-09-17T06:58:54.126Z,55.00
2018-09-17T07:01:22.986Z,54.95
2018-09-17T07:03:51.837Z,54.92
2018-09-17T07:06:21.224Z,53.45
2018-09-17T07:08:50.059Z,53.27
2018-09-17T07:11:18.861Z,53.54
2018-09-17T07:13:47.656Z,53.82
2018-09-17T07:16:16.516Z,54.42
2018-09-17T07:18:45.350Z,54.50
2018-09-17T07:21:14.234Z,53.34
2018-09-17T07:23:43.052Z,53.40
2018-09-17T07:26:11.971Z,52.71
2018-09-17T07:28:42.213Z,52.58
2018-09-17T07:31:11.210Z,52.96
2018-09-17T07:33:40.014Z,52.51
2018-09-17T07:36:09.205Z,52.97
2018-09-17T07:38:38.077Z,52.61
2018-09-17T07:41:06.897Z,52.84
2018-09-17T07:43:37.006Z,53.37
2018-09-17T07:46:05.984Z,52.77
2018-09-17T07:48:36.238Z,53.03
2018-09-17T07:51:05.062Z,54.10
2018-09-17T07:53:33.861Z,53.98
2018-09-17T07:56:04.159Z,53.90
2018-09-17T07:58:32.982Z,55.10
2018-09-17T08:01:01.842Z,54.49
2018-09-17T08:03:30.824Z,54.48
2018-09-17T08:05:59.658Z,54.04
2018-09-17T08:08:29.885Z,54.59
2018-09-17T08:10:58.710Z,54.94
2018-09-17T08:13:27.519Z,54.08
2018-09-17T08:15:56.372Z,54.47
2018-09-17T08:18:25.202Z,53.96
2018-09-17T08:20:54.161Z,53.36
2018-09-17T08:23:23.019Z,53.77
2018-09-17T08:25:51.822Z,53.44
2018-09-17T08:28:20.675Z,53.23
2018-09-17T08:30:49.525Z,52.34
2018-09-17T08:33:18.386Z,51.70
2018-09-17T08:35:48.472Z,51.31
2018-09-17T08:38:17.521Z,51.51
2018-09-17T08:40:46.353Z,51.00
2018-09-17T08:43:15.255Z,52.11
2018-09-17T08:45:44.085Z,51.76
2018-09-17T08:48:12.901Z,52.44
2018-09-17T08:50:41.767Z,52.00
2018-09-17T08:53:10.664Z,51.62
2018-09-17T08:55:45.917Z,50.06
2018-09-17T08:58:19.888Z,50.60
2018-09-17T09:00:53.882Z,50.56
2018-09-17T09:03:30.078Z,50.79
2018-09-17T09:06:04.034Z,49.37
2018-09-17T09:08:33.041Z,48.80
2018-09-17T09:11:07.095Z,48.48
2018-09-17T09:13:41.051Z,47.76
2018-09-17T09:16:10.155Z,47.99
2018-09-17T09:18:39.054Z,47.99
2018-09-17T09:21:07.941Z,47.26
2018-09-17T09:23:36.936Z,48.96
2018-09-17T09:26:05.890Z,48.56
2018-09-17T09:28:34.847Z,48.19
2018-09-17T09:31:03.757Z,47.92
2018-09-17T09:33:33.863Z,48.11
2018-09-17T09:36:02.767Z,47.27
2018-09-17T09:38:31.648Z,47.53
2018-09-17T09:41:00.529Z,47.58
2018-09-17T09:43:29.353Z,48.08
2018-09-17T09:45:58.289Z,47.22
2018-09-17T09:48:27.203Z,46.93
2018-09-17T09:50:56.024Z,46.05
2018-09-17T09:53:24.878Z,46.12
2018-09-17T09:55:53.751Z,45.19
2018-09-17T09:58:23.039Z,45.06
2018-09-17T10:00:57.174Z,44.73
2018-09-17T10:03:31.089Z,45.62
2018-09-17T10:05:59.930Z,46.13
2018-09-17T10:08:28.743Z,47.09
2018-09-17T10:11:04.163Z,47.22
2018-09-17T10:13:38.134Z,47.58
2018-09-17T10:16:13.426Z,47.43
2018-09-17T10:18:47.517Z,46.15
2018-09-17T10:21:17.767Z,46.41
2018-09-17T10:23:47.103Z,46.42
2018-09-17T10:26:15.966Z,46.48
2018-09-17T10:28:45.160Z,45.84
2018-09-17T10:31:14.155Z,46.68
2018-09-17T10:33:43.087Z,45.45
2018-09-17T10:36:13.397Z,45.60
2018-09-17T10:38:42.342Z,45.59
2018-09-17T10:41:13.448Z,45.24
2018-09-17T10:43:42.355Z,46.09
2018-09-17T10:46:11.469Z,45.88
2018-09-17T10:48:41.736Z,46.15
2018-09-17T10:51:10.633Z,47.02
2018-09-17T10:53:39.503Z,47.64
2018-09-17T10:56:09.615Z,47.93
2018-09-17T10:58:38.496Z,47.91
2018-09-17T11:01:07.428Z,47.57
2018-09-17T11:03:37.770Z,48.07
2018-09-17T11:06:06.960Z,47.46
2018-09-17T11:08:36.037Z,46.25
2018-09-17T11:11:05.026Z,45.23
2018-09-17T11:13:33.913Z,45.07
2018-09-17T11:16:02.806Z,45.63
2018-09-17T11:18:31.809Z,45.78
2018-09-17T11:21:00.679Z,45.55
2018-09-17T11:23:29.598Z,46.30
2018-09-17T11:25:58.491Z,45.91
2018-09-17T11:28:27.461Z,46.21
2018-09-17T11:30:56.640Z,46.08
2018-09-17T11:33:28.109Z,45.96
2018-09-17T11:35:57.002Z,45.72
2018-09-17T11:38:25.900Z,45.53
2018-09-17T11:40:56.087Z,45.40
2018-09-17T11:43:24.988Z,45.13
2018-09-17T11:45:53.878Z,45.25
2018-09-17T11:48:22.896Z,45.77
2018-09-17T11:50:51.821Z,45.74
2018-09-17T11:53:20.697Z,45.26
2018-09-17T11:55:51.089Z,45.71
2018-09-17T11:58:20.020Z,45.45
2018-09-17T12:00:53.942Z,45.71
2018-09-17T12:03:27.895Z,45.67
2018-09-17T12:06:02.346Z,44.68
2018-09-17T12:08:31.284Z,45.50
2018-09-17T12:11:00.185Z,45.11
2018-09-17T12:13:30.553Z,44.83
2018-09-17T12:15:59.476Z,45.26
2018-09-17T12:18:28.342Z,44.46
2018-09-17T12:20:58.516Z,44.87
2018-09-17T12:23:27.432Z,44.33
2018-09-17T12:25:56.396Z,44.94
2018-09-17T12:28:26.548Z,43.65
2018-09-17T12:30:55.565Z,44.32
2018-09-17T12:33:24.517Z,44.32
2018-09-17T12:35:53.634Z,44.27
2018-09-17T12:38:22.577Z,43.43
2018-09-17T12:40:51.526Z,43.88
2018-09-17T12:43:20.521Z,44.77
2018-09-17T12:45:49.475Z,45.15
2018-09-17T12:48:18.416Z,46.22
2018-09-17T12:50:47.410Z,46.51
2018-09-17T12:53:17.731Z,46.46
2018-09-17T12:55:46.606Z,44.91
2018-09-17T12:58:15.530Z,44.92
2018-09-17T13:00:44.527Z,43.24
2018-09-17T13:03:13.472Z,42.29
2018-09-17T13:05:42.392Z,41.75
2018-09-17T13:08:12.543Z,39.58
2018-09-17T13:10:41.554Z,39.59
2018-09-17T13:13:10.768Z,37.80
2018-09-17T13:15:44.805Z,37.71
2018-09-17T13:18:13.756Z,37.65
2018-09-17T13:20:42.809Z,37.83
2018-09-17T13:23:13.080Z,37.50
2018-09-17T13:25:41.996Z,38.01
2018-09-17T13:28:10.903Z,37.72
2018-09-17T13:30:39.996Z,37.12
2018-09-17T13:33:09.000Z,37.69
2018-09-17T13:35:38.051Z,34.82
2018-09-17T13:38:07.341Z,34.58
2018-09-17T13:40:36.256Z,37.56
2018-09-17T13:43:05.235Z,36.88
2018-09-17T13:45:34.217Z,38.26
2018-09-17T13:48:03.128Z,38.17
2018-09-17T13:50:32.120Z,36.60
2018-09-17T13:53:01.140Z,36.29
2018-09-17T13:55:30.144Z,38.20
2018-09-17T13:57:59.115Z,37.42
2018-09-17T14:00:28.103Z,37.03
2018-09-17T14:02:57.003Z,35.51
2018-09-17T14:05:26.003Z,36.59
2018-09-17T14:07:55.161Z,36.01
2018-09-17T14:10:25.720Z,37.43
2018-09-17T14:12:54.611Z,39.47
2018-09-17T14:15:23.483Z,37.59
2018-09-17T14:17:52.413Z,38.32
2018-09-17T14:20:21.287Z,38.18
2018-09-17T14:22:50.146Z,37.40
2018-09-17T14:25:19.069Z,37.38
2018-09-17T14:27:47.974Z,38.68
2018-09-17T14:30:16.922Z,38.71
2018-09-17T14:32:51.035Z,38.36
2018-09-17T14:35:19.976Z,39.42
2018-09-17T14:37:48.798Z,38.32
2018-09-17T14:40:17.711Z,39.54
2018-09-17T14:42:46.577Z,38.34
2018-09-17T14:45:15.450Z,38.07
2018-09-17T14:47:44.334Z,39.32
2018-09-17T14:50:13.170Z,40.85
2018-09-17T14:52:42.066Z,40.78
2018-09-17T14:55:10.989Z,40.95
2018-09-17T14:57:39.878Z,40.53
2018-09-17T15:00:10.121Z,40.37
2018-09-17T15:02:38.991Z,41.04
2018-09-17T15:05:07.898Z,41.85
2018-09-17T15:07:36.900Z,40.75
2018-09-17T15:10:06.761Z,42.30
2018-09-17T15:12:35.987Z,41.25
2018-09-17T15:15:06.354Z,41.08
2018-09-17T15:17:35.335Z,41.02
2018-09-17T15:20:04.523Z,40.70
2018-09-17T15:22:33.350Z,40.09
2018-09-17T15:25:02.193Z,40.18
2018-09-17T15:27:32.357Z,40.02
2018-09-17T15:30:01.390Z,40.36
2018-09-17T15:32:30.376Z,41.05
2018-09-17T15:34:59.241Z,41.76
2018-09-17T15:37:29.669Z,42.00
2018-09-17T15:39:58.550Z,42.87
2018-09-17T15:42:27.469Z,43.32
2018-09-17T15:44:56.382Z,42.98
2018-09-17T15:47:25.226Z,42.35
2018-09-17T15:49:55.410Z,43.42
2018-09-17T15:52:24.246Z,42.80
2018-09-17T15:54:53.105Z,44.20
2018-09-17T15:57:23.473Z,43.32
2018-09-17T15:59:52.353Z,44.27
2018-09-17T16:02:21.234Z,44.47
2018-09-17T16:04:51.530Z,45.61
2018-09-17T16:07:20.434Z,46.26
2018-09-17T16:09:49.312Z,46.28
2018-09-17T16:12:18.202Z,45.20
2018-09-17T16:14:47.058Z,45.49
2018-09-17T16:17:16.009Z,45.74
2018-09-17T16:19:46.166Z,45.01
2018-09-17T16:22:15.094Z,46.72
2018-09-17T16:24:44.070Z,48.84
2018-09-17T16:27:12.961Z,49.87
2018-09-17T16:29:43.108Z,52.25
2018-09-17T16:32:12.097Z,52.08
2018-09-17T16:34:40.944Z,52.86
2018-09-17T16:37:09.882Z,54.35
2018-09-17T16:39:38.766Z,54.26
2018-09-17T16:42:07.697Z,54.90
2018-09-17T16:44:36.631Z,54.49
2018-09-17T16:47:05.647Z,55.38
2018-09-17T16:49:34.628Z,55.76
2018-09-17T16:52:03.585Z,56.03
2018-09-17T16:54:32.493Z,57.01
2018-09-17T16:57:02.833Z,56.82
2018-09-17T16:59:31.770Z,56.38
2018-09-17T17:02:00.747Z,56.77
2018-09-17T17:04:29.669Z,56.77
2018-09-17T17:06:58.646Z,57.50
2018-09-17T17:09:27.458Z,57.62
2018-09-17T17:11:56.375Z,57.16
2018-09-17T17:14:25.229Z,57.31
2018-09-17T17:16:54.315Z,57.81
2018-09-17T17:19:23.190Z,58.03
2018-09-17T17:21:52.065Z,57.48
2018-09-17T17:24:20.905Z,57.45
2018-09-17T17:26:50.975Z,56.98
2018-09-17T17:29:19.948Z,57.42
2018-09-17T17:31:48.818Z,58.52
2018-09-17T17:34:17.752Z,58.99
2018-09-17T17:36:46.602Z,59.04
2018-09-17T17:39:15.550Z,58.17
2018-09-17T17:41:45.674Z,58.70
2018-09-17T17:44:14.546Z,57.97
2018-09-17T17:46:43.380Z,58.29
2018-09-17T17:49:12.311Z,58.17
2018-09-17T17:51:41.146Z,58.14
2018-09-17T17:54:09.995Z,59.12
2018-09-17T17:56:38.913Z,59.48
2018-09-17T17:59:07.740Z,59.06
2018-09-17T18:01:36.606Z,58.37
2018-09-17T18:04:05.519Z,57.62
2018-09-17T18:06:34.443Z,57.36
2018-09-17T18:09:03.432Z,57.38
2018-09-17T18:11:32.330Z,56.96
2018-09-17T18:14:01.160Z,57.13
2018-09-17T18:16:29.998Z,57.20
2018-09-17T18:18:59.937Z,57.73
2018-09-17T18:21:28.921Z,58.49
2018-09-17T18:23:59.204Z,58.31
2018-09-17T18:26:28.878Z,58.19
2018-09-17T18:28:57.747Z,58.68
2018-09-17T18:31:26.635Z,58.56
2018-09-17T18:33:55.512Z,58.18
2018-09-17T18:36:24.395Z,57.42
2018-09-17T18:38:53.272Z,57.47
2018-09-17T18:41:23.350Z,58.00
2018-09-17T18:43:52.154Z,57.52
2018-09-17T18:46:20.981Z,57.86
2018-09-17T18:48:51.056Z,57.73
2018-09-17T18:51:19.895Z,58.07
2018-09-17T18:53:48.750Z,58.24
2018-09-17T18:56:17.795Z,58.45
2018-09-17T18:58:46.783Z,58.63
2018-09-17T19:01:15.665Z,58.24
2018-09-17T19:03:45.786Z,57.40
2018-09-17T19:06:14.678Z,57.60
2018-09-17T19:08:43.524Z,57.77
2018-09-17T19:11:13.634Z,58.23
2018-09-17T19:13:42.524Z,58.66
2018-09-17T19:16:11.378Z,58.23
2018-09-17T19:18:41.609Z,57.86
2018-09-17T19:21:10.537Z,57.45
2018-09-17T19:23:45.737Z,57.43
2018-09-17T19:26:14.571Z,56.81
2018-09-17T19:28:49.667Z,56.88
2018-09-17T19:31:19.791Z,56.68
2018-09-17T19:33:50.037Z,57.32
2018-09-17T19:36:20.278Z,57.43
2018-09-17T19:38:54.196Z,59.54
2018-09-17T19:41:24.375Z,59.17
2018-09-17T19:43:53.222Z,60.50
2018-09-17T19:46:22.189Z,61.93
2018-09-17T19:48:50.964Z,63.03
2018-09-17T19:51:25.021Z,62.56
2018-09-17T19:53:53.880Z,63.07
2018-09-17T19:56:22.773Z,63.04
2018-09-17T19:58:56.532Z,63.44
2018-09-17T20:01:25.374Z,63.46
2018-09-17T20:03:54.186Z,63.16
2018-09-17T20:06:25.499Z,63.80
2018-09-17T20:08:54.301Z,64.07
2018-09-17T20:11:23.124Z,64.00
2018-09-17T20:13:51.937Z,64.33
2018-09-17T20:16:20.788Z,64.38
2018-09-17T20:18:50.876Z,64.89
2018-09-17T20:21:19.658Z,65.29
2018-09-17T20:23:48.558Z,65.75
2018-09-17T20:26:17.412Z,65.85
2018-09-17T20:28:46.244Z,66.09
2018-09-17T20:31:15.061Z,66.02
2018-09-17T20:33:43.937Z,66.12
2018-09-17T20:36:12.878Z,66.96
2018-09-17T20:38:41.827Z,67.14
2018-09-17T20:41:10.647Z,66.85
2018-09-17T20:43:39.456Z,67.04
2018-09-17T20:46:08.253Z,67.07
2018-09-17T20:48:38.297Z,68.05
2018-09-17T20:51:07.120Z,67.71
2018-09-17T20:53:36.009Z,68.19
2018-09-17T20:56:04.988Z,68.29
2018-09-17T20:58:33.725Z,67.60
2018-09-17T21:01:02.709Z,67.59
2018-09-17T21:03:31.433Z,67.16
2018-09-17T21:06:00.247Z,67.48
2018-09-17T21:08:30.376Z,67.66
2018-09-17T21:10:59.186Z,67.45
2018-09-17T21:13:28.111Z,67.67
2018-09-17T21:15:57.001Z,67.42
2018-09-17T21:18:25.874Z,67.57
2018-09-17T21:21:01.200Z,67.15
2018-09-17T21:23:30.071Z,67.33
2018-09-17T21:25:58.881Z,67.34
2018-09-17T21:28:27.755Z,67.53
2018-09-17T21:30:56.713Z,67.52
2018-09-17T21:33:25.546Z,67.76
2018-09-17T21:35:54.371Z,67.94
2018-09-17T21:38:23.282Z,67.53
2018-09-17T21:40:52.176Z,67.42
2018-09-17T21:43:21.057Z,67.67
2018-09-17T21:45:49.913Z,66.96
2018-09-17T21:48:18.786Z,67.00
2018-09-17T21:50:47.751Z,66.82
2018-09-17T21:53:16.674Z,66.85
2018-09-17T21:55:45.571Z,66.91
2018-09-17T21:58:14.425Z,67.08
2018-09-17T22:00:48.497Z,66.82
2018-09-17T22:03:17.574Z,66.80
2018-09-17T22:05:46.369Z,66.92
2018-09-17T22:08:15.166Z,67.32
2018-09-17T22:10:44.035Z,67.40
2018-09-17T22:13:12.937Z,67.29
2018-09-17T22:15:41.758Z,67.39
2018-09-17T22:18:10.633Z,66.91
2018-09-17T22:20:39.474Z,67.56
2018-09-17T22:23:08.283Z,66.50
2018-09-17T22:25:37.115Z,66.86
2018-09-17T22:28:05.971Z,66.93
2018-09-17T22:30:35.371Z,66.90
2018-09-17T22:33:04.166Z,67.29
2018-09-17T22:35:33.238Z,66.71
2018-09-17T22:38:02.070Z,66.72
2018-09-17T22:40:30.866Z,66.44
2018-09-17T22:42:59.699Z,66.50
2018-09-17T22:45:28.514Z,66.71
2018-09-17T22:47:57.321Z,66.65
2018-09-17T22:50:26.194Z,66.28
2018-09-17T22:52:55.011Z,66.46
2018-09-17T22:55:23.895Z,66.54
2018-09-17T22:57:52.735Z,66.17
2018-09-17T23:00:21.546Z,66.57
2018-09-17T23:02:50.394Z,66.31
2018-09-17T23:05:19.247Z,66.96
2018-09-17T23:07:48.079Z,66.35
2018-09-17T23:10:17.011Z,66.52
2018-09-17T23:12:45.893Z,66.59
2018-09-17T23:15:14.691Z,66.80
2018-09-17T23:17:43.539Z,66.24
2018-09-17T23:20:12.390Z,66.33
2018-09-17T23:22:41.275Z,65.92
2018-09-17T23:25:10.255Z,65.85
2018-09-17T23:27:39.183Z,66.64
2018-09-17T23:30:08.094Z,66.33
2018-09-17T23:32:37.056Z,66.19
2018-09-17T23:35:05.984Z,66.77
2018-09-17T23:37:34.940Z,66.37
2018-09-17T23:40:03.960Z,66.85
2018-09-17T23:42:32.921Z,66.16
2018-09-17T23:45:01.892Z,66.48
2018-09-17T23:47:30.767Z,66.20
2018-09-17T23:49:59.555Z,65.98
2018-09-17T23:52:28.395Z,66.35
2018-09-17T23:54:57.198Z,66.83
2018-09-17T23:57:26.040Z,66.52
2018-09-17T23:59:54.878Z,66.35
